createdAt,value
2019-01-09T00:00:00.821Z,4.9
2019-01-09T00:01:02.206Z,4.9
2019-01-09T00:02:04.127Z,5.0
2019-01-09T00:03:05.510Z,5.0
2019-01-09T00:04:06.903Z,5.0
2019-01-09T00:05:08.459Z,5.0
2019-01-09T00:06:09.812Z,4.9
2019-01-09T00:07:11.215Z,5.0
2019-01-09T00:08:12.782Z,4.9
2019-01-09T00:09:14.227Z,5.0
2019-01-09T00:10:15.564Z,5.0
2019-01-09T00:11:17.100Z,4.9
2019-01-09T00:12:18.492Z,4.9
2019-01-09T00:13:19.984Z,4.9
2019-01-09T00:14:21.379Z,5.0
2019-01-09T00:15:22.862Z,4.9
2019-01-09T00:16:24.255Z,5.1
2019-01-09T00:17:25.744Z,5.2
2019-01-09T00:18:27.134Z,5.1
2019-01-09T00:19:28.586Z,5.2
2019-01-09T00:20:30.079Z,5.1
2019-01-09T00:21:31.472Z,5.1
2019-01-09T00:22:32.958Z,5.1
2019-01-09T00:23:34.363Z,5.1
2019-01-09T00:24:35.830Z,5.2
2019-01-09T00:25:37.225Z,5.2
2019-01-09T00:26:38.711Z,5.2
2019-01-09T00:27:40.494Z,5.2
2019-01-09T00:28:42.064Z,5.2
2019-01-09T00:29:43.398Z,5.2
2019-01-09T00:30:46.104Z,5.3
2019-01-09T00:31:47.496Z,5.2
2019-01-09T00:32:48.886Z,5.2
2019-01-09T00:33:50.429Z,5.2
2019-01-09T00:34:51.821Z,5.2
2019-01-09T00:35:53.215Z,5.2
2019-01-09T00:36:54.752Z,5.2
2019-01-09T00:37:56.153Z,5.1
2019-01-09T00:38:57.534Z,5.2
2019-01-09T00:39:59.459Z,5.2
2019-01-09T00:41:00.848Z,5.2
2019-01-09T00:42:02.262Z,5.2
2019-01-09T00:43:03.808Z,5.1
2019-01-09T00:44:05.595Z,5.0
2019-01-09T00:45:07.095Z,5.1
2019-01-09T00:46:08.483Z,5.2
2019-01-09T00:47:09.975Z,5.1
2019-01-09T00:48:11.366Z,5.2
2019-01-09T00:49:12.854Z,5.2
2019-01-09T00:50:14.248Z,5.2
2019-01-09T00:51:15.737Z,5.2
2019-01-09T00:52:17.125Z,5.1
2019-01-09T00:53:18.615Z,5.2
2019-01-09T00:54:20.005Z,5.2
2019-01-09T00:55:21.497Z,5.1
2019-01-09T00:56:22.889Z,5.2
2019-01-09T00:57:24.283Z,5.2
2019-01-09T00:58:26.055Z,5.2
2019-01-09T00:59:27.671Z,5.2
2019-01-09T01:00:29.059Z,5.1
2019-01-09T01:01:30.463Z,5.2
2019-01-09T01:02:32.377Z,5.1
2019-01-09T01:03:34.164Z,5.1
2019-01-09T01:04:35.691Z,5.2
2019-01-09T01:05:45.669Z,5.2
2019-01-09T01:06:38.439Z,5.2
2019-01-09T01:07:39.913Z,5.2
2019-01-09T01:08:42.470Z,5.1
2019-01-09T01:09:43.819Z,4.9
2019-01-09T01:10:45.219Z,5.0
2019-01-09T01:11:46.799Z,5.0
2019-01-09T01:12:48.193Z,5.0
2019-01-09T01:13:49.583Z,5.0
2019-01-09T01:14:51.011Z,4.9
2019-01-09T01:15:52.819Z,4.9
2019-01-09T01:16:54.414Z,5.1
2019-01-09T01:17:56.567Z,5.0
2019-01-09T01:18:57.962Z,4.9
2019-01-09T01:19:59.551Z,5.0
2019-01-09T01:21:00.952Z,4.9
2019-01-09T01:22:02.312Z,5.0
2019-01-09T01:23:04.096Z,4.9
2019-01-09T01:24:05.738Z,5.0
2019-01-09T01:25:07.514Z,5.1
2019-01-09T01:26:09.301Z,5.1
2019-01-09T01:27:10.706Z,5.0
2019-01-09T01:28:12.352Z,5.0
2019-01-09T01:29:13.749Z,5.0
2019-01-09T01:30:15.426Z,5.0
2019-01-09T01:31:16.793Z,4.9
2019-01-09T01:32:18.272Z,4.9
2019-01-09T01:33:19.670Z,4.9
2019-01-09T01:34:21.085Z,4.9
2019-01-09T01:35:23.035Z,4.8
2019-01-09T01:36:26.731Z,4.8
2019-01-09T01:37:28.148Z,4.7
2019-01-09T01:38:29.549Z,4.8
2019-01-09T01:39:30.947Z,4.7
2019-01-09T01:40:32.361Z,4.8
2019-01-09T01:41:33.758Z,4.7
2019-01-09T01:42:35.716Z,4.7
2019-01-09T01:43:36.774Z,4.7
2019-01-09T01:44:38.548Z,4.6
2019-01-09T01:45:40.066Z,4.7
2019-01-09T01:46:41.463Z,4.8
2019-01-09T01:47:42.984Z,4.6
2019-01-09T01:48:44.379Z,4.7
2019-01-09T01:49:45.768Z,4.7
2019-01-09T01:50:47.277Z,4.7
2019-01-09T01:51:48.674Z,4.6
2019-01-09T01:52:50.062Z,4.7
2019-01-09T01:53:52.773Z,4.7
2019-01-09T01:54:54.546Z,4.6
2019-01-09T01:55:56.491Z,4.6
2019-01-09T01:56:57.882Z,4.7
2019-01-09T01:57:59.651Z,4.5
2019-01-09T01:59:01.249Z,4.5
2019-01-09T02:00:02.641Z,4.5
2019-01-09T02:01:04.425Z,4.6
2019-01-09T02:02:05.980Z,4.6
2019-01-09T02:03:07.374Z,4.6
2019-01-09T02:04:08.768Z,4.6
2019-01-09T02:05:10.311Z,4.6
2019-01-09T02:06:12.083Z,4.6
2019-01-09T02:07:13.595Z,4.6
2019-01-09T02:08:14.989Z,4.6
2019-01-09T02:09:16.384Z,4.5
2019-01-09T02:10:17.927Z,4.5
2019-01-09T02:11:19.694Z,4.6
2019-01-09T02:12:21.083Z,4.6
2019-01-09T02:13:22.679Z,4.6
2019-01-09T02:14:24.456Z,4.7
2019-01-09T02:15:25.849Z,4.6
2019-01-09T02:16:27.249Z,4.6
2019-01-09T02:17:28.819Z,4.6
2019-01-09T02:18:30.210Z,4.6
2019-01-09T02:19:31.598Z,4.6
2019-01-09T02:20:33.144Z,4.7
2019-01-09T02:21:34.534Z,4.6
2019-01-09T02:22:35.926Z,4.6
2019-01-09T02:23:37.461Z,4.7
2019-01-09T02:24:38.853Z,4.7
2019-01-09T02:25:40.338Z,4.7
2019-01-09T02:26:41.729Z,4.8
2019-01-09T02:27:43.143Z,4.8
2019-01-09T02:28:44.665Z,4.8
2019-01-09T02:29:46.443Z,4.8
2019-01-09T02:30:47.951Z,4.8
2019-01-09T02:31:49.345Z,4.7
2019-01-09T02:32:50.833Z,4.7
2019-01-09T02:33:52.225Z,4.6
2019-01-09T02:34:53.621Z,4.7
2019-01-09T02:35:55.167Z,4.6
2019-01-09T02:36:56.550Z,4.6
2019-01-09T02:37:57.943Z,4.6
2019-01-09T02:38:59.475Z,4.5
2019-01-09T02:40:01.031Z,4.5
2019-01-09T02:41:02.412Z,4.5
2019-01-09T02:42:04.582Z,4.5
2019-01-09T02:43:06.062Z,4.5
2019-01-09T02:44:07.450Z,4.5
2019-01-09T02:45:08.938Z,4.5
2019-01-09T02:46:10.339Z,4.4
2019-01-09T02:47:11.819Z,4.4
2019-01-09T02:48:13.216Z,4.4
2019-01-09T02:49:14.996Z,4.4
2019-01-09T02:50:16.554Z,4.4
2019-01-09T02:51:17.942Z,4.3
2019-01-09T02:52:19.337Z,4.3
2019-01-09T02:53:20.732Z,4.2
2019-01-09T02:54:22.135Z,4.2
2019-01-09T02:55:23.526Z,4.3
2019-01-09T02:56:24.926Z,4.1
2019-01-09T02:57:26.317Z,4.2
2019-01-09T02:58:27.871Z,4.3
2019-01-09T02:59:29.266Z,4.2
2019-01-09T03:00:30.762Z,4.1
2019-01-09T03:01:32.375Z,4.2
2019-01-09T03:02:34.216Z,4.2
2019-01-09T03:03:35.613Z,4.2
2019-01-09T03:04:37.023Z,4.2
2019-01-09T03:05:38.569Z,4.2
2019-01-09T03:06:39.970Z,4.2
2019-01-09T03:07:41.357Z,4.2
2019-01-09T03:08:42.888Z,4.2
2019-01-09T03:09:44.308Z,4.2
2019-01-09T03:10:45.783Z,4.1
2019-01-09T03:11:47.209Z,4.3
2019-01-09T03:12:48.602Z,4.2
2019-01-09T03:13:49.994Z,4.2
2019-01-09T03:14:51.529Z,4.2
2019-01-09T03:15:52.918Z,4.2
2019-01-09T03:16:54.312Z,4.3
2019-01-09T03:17:55.850Z,4.3
2019-01-09T03:18:57.244Z,4.3
2019-01-09T03:19:58.637Z,4.3
2019-01-09T03:21:00.172Z,4.3
2019-01-09T03:22:01.572Z,4.3
2019-01-09T03:23:02.961Z,4.4
2019-01-09T03:24:04.494Z,4.3
2019-01-09T03:25:05.890Z,4.4
2019-01-09T03:26:07.751Z,4.3
2019-01-09T03:27:09.152Z,4.3
2019-01-09T03:28:10.665Z,4.4
2019-01-09T03:29:12.065Z,4.4
2019-01-09T03:30:13.451Z,4.5
2019-01-09T03:31:14.988Z,4.5
2019-01-09T03:32:16.388Z,4.5
2019-01-09T03:33:17.777Z,4.5
2019-01-09T03:34:19.173Z,4.5
2019-01-09T03:35:20.760Z,4.5
2019-01-09T03:36:22.153Z,4.5
2019-01-09T03:37:23.553Z,4.5
2019-01-09T03:38:25.068Z,4.5
2019-01-09T03:39:26.465Z,4.5
2019-01-09T03:40:27.863Z,4.5
2019-01-09T03:41:29.598Z,4.5
2019-01-09T03:42:31.377Z,4.5
2019-01-09T03:43:32.887Z,4.4
2019-01-09T03:44:34.279Z,4.6
2019-01-09T03:45:35.770Z,4.5
2019-01-09T03:46:37.208Z,4.7
2019-01-09T03:47:38.656Z,4.4
2019-01-09T03:48:40.050Z,4.4
2019-01-09T03:49:41.528Z,4.4
2019-01-09T03:50:42.921Z,4.4
2019-01-09T03:51:44.409Z,4.3
2019-01-09T03:52:45.804Z,4.2
2019-01-09T03:53:47.296Z,4.2
2019-01-09T03:54:48.686Z,4.1
2019-01-09T03:55:50.177Z,4.1
2019-01-09T03:56:51.567Z,4.0
2019-01-09T03:57:53.057Z,4.0
2019-01-09T03:58:54.446Z,4.0
2019-01-09T03:59:55.938Z,4.0
2019-01-09T04:00:57.378Z,4.0
2019-01-09T04:01:58.768Z,3.9
2019-01-09T04:03:00.256Z,4.0
2019-01-09T04:04:01.651Z,4.0
2019-01-09T04:05:03.044Z,3.9
2019-01-09T04:06:04.579Z,3.9
2019-01-09T04:07:05.970Z,3.9
2019-01-09T04:08:07.324Z,3.8
2019-01-09T04:09:08.898Z,3.8
2019-01-09T04:10:10.291Z,3.8
2019-01-09T04:11:11.682Z,3.7
2019-01-09T04:12:13.217Z,3.8
2019-01-09T04:13:14.611Z,3.7
2019-01-09T04:14:16.004Z,3.7
2019-01-09T04:15:17.560Z,3.7
2019-01-09T04:16:18.952Z,3.7
2019-01-09T04:17:20.347Z,3.6
2019-01-09T04:18:22.155Z,3.7
2019-01-09T04:19:23.573Z,3.9
2019-01-09T04:20:24.946Z,3.9
2019-01-09T04:21:26.595Z,3.9
2019-01-09T04:22:27.985Z,3.9
2019-01-09T04:23:29.378Z,4.0
2019-01-09T04:24:30.918Z,4.1
2019-01-09T04:25:32.311Z,4.0
2019-01-09T04:26:33.809Z,4.1
2019-01-09T04:27:35.187Z,4.0
2019-01-09T04:28:36.676Z,4.0
2019-01-09T04:29:38.071Z,4.1
2019-01-09T04:30:39.861Z,4.1
2019-01-09T04:31:41.412Z,4.1
2019-01-09T04:32:42.829Z,4.1
2019-01-09T04:33:44.227Z,4.2
2019-01-09T04:34:45.729Z,4.2
2019-01-09T04:35:47.126Z,4.3
2019-01-09T04:36:51.777Z,4.2
2019-01-09T04:37:49.969Z,4.1
2019-01-09T04:38:51.492Z,4.1
2019-01-09T04:39:52.890Z,4.1
2019-01-09T04:40:54.283Z,4.0
2019-01-09T04:41:55.820Z,3.9
2019-01-09T04:42:57.215Z,3.9
2019-01-09T04:43:58.607Z,4.0
2019-01-09T04:45:00.346Z,4.0
2019-01-09T04:46:01.488Z,3.9
2019-01-09T04:47:02.879Z,3.8
2019-01-09T04:48:04.461Z,3.8
2019-01-09T04:49:05.855Z,3.8
2019-01-09T04:50:07.261Z,3.8
2019-01-09T04:51:08.657Z,3.7
2019-01-09T04:52:10.224Z,3.7
2019-01-09T04:53:11.625Z,3.6
2019-01-09T04:54:13.016Z,3.7
2019-01-09T04:55:14.594Z,3.7
2019-01-09T04:56:15.981Z,3.7
2019-01-09T04:57:17.374Z,3.7
2019-01-09T04:58:18.857Z,3.7
2019-01-09T04:59:20.252Z,3.7
2019-01-09T05:00:21.651Z,3.7
2019-01-09T05:01:23.180Z,3.6
2019-01-09T05:02:24.576Z,3.6
2019-01-09T05:03:25.964Z,3.6
2019-01-09T05:04:27.515Z,3.5
2019-01-09T05:05:28.898Z,3.6
2019-01-09T05:06:30.291Z,3.6
2019-01-09T05:07:31.822Z,3.6
2019-01-09T05:08:33.268Z,3.5
2019-01-09T05:09:34.704Z,3.5
2019-01-09T05:10:36.097Z,3.4
2019-01-09T05:11:37.492Z,3.5
2019-01-09T05:12:39.403Z,3.4
2019-01-09T05:13:40.803Z,3.4
2019-01-09T05:14:42.197Z,3.4
2019-01-09T05:15:43.755Z,3.3
2019-01-09T05:16:45.150Z,3.3
2019-01-09T05:17:46.542Z,3.3
2019-01-09T05:18:48.077Z,3.3
2019-01-09T05:19:49.470Z,3.3
2019-01-09T05:20:50.867Z,3.3
2019-01-09T05:21:52.403Z,3.3
2019-01-09T05:22:53.798Z,3.2
2019-01-09T05:23:55.281Z,3.3
2019-01-09T05:24:56.674Z,3.2
2019-01-09T05:25:58.120Z,3.2
2019-01-09T05:26:59.509Z,3.2
2019-01-09T05:28:01.000Z,3.2
2019-01-09T05:29:02.393Z,3.3
2019-01-09T05:30:03.882Z,3.3
2019-01-09T05:31:07.644Z,3.2
2019-01-09T05:32:06.796Z,3.2
2019-01-09T05:33:08.176Z,3.2
2019-01-09T05:34:09.643Z,3.2
2019-01-09T05:35:11.038Z,3.2
2019-01-09T05:36:12.432Z,3.1
2019-01-09T05:37:13.968Z,3.0
2019-01-09T05:38:15.357Z,3.1
2019-01-09T05:39:16.748Z,3.2
2019-01-09T05:40:18.289Z,3.1
2019-01-09T05:41:19.680Z,3.1
2019-01-09T05:42:21.170Z,3.3
2019-01-09T05:43:22.561Z,3.3
2019-01-09T05:44:24.053Z,3.3
2019-01-09T05:45:25.445Z,3.2
2019-01-09T05:46:26.832Z,3.2
2019-01-09T05:47:28.370Z,3.3
2019-01-09T05:48:29.762Z,3.2
2019-01-09T05:49:31.153Z,3.3
2019-01-09T05:50:32.691Z,3.4
2019-01-09T05:51:34.085Z,3.4
2019-01-09T05:52:35.482Z,3.4
2019-01-09T05:53:37.030Z,3.4
2019-01-09T05:54:38.404Z,3.4
2019-01-09T05:55:39.795Z,3.4
2019-01-09T05:56:41.338Z,3.4
2019-01-09T05:57:42.729Z,3.3
2019-01-09T05:58:44.216Z,3.4
2019-01-09T05:59:45.609Z,3.4
2019-01-09T06:00:47.099Z,3.4
2019-01-09T06:01:48.488Z,3.4
2019-01-09T06:02:49.879Z,3.4
2019-01-09T06:03:51.419Z,3.3
2019-01-09T06:04:52.811Z,3.4
2019-01-09T06:05:54.203Z,3.3
2019-01-09T06:06:55.947Z,3.3
2019-01-09T06:07:57.336Z,3.3
2019-01-09T06:08:58.727Z,3.2
2019-01-09T06:10:00.266Z,3.2
2019-01-09T06:11:01.660Z,3.2
2019-01-09T06:12:03.049Z,3.2
2019-01-09T06:13:04.587Z,3.2
2019-01-09T06:14:05.980Z,3.2
2019-01-09T06:15:07.469Z,3.1
2019-01-09T06:16:08.860Z,3.1
2019-01-09T06:17:10.250Z,3.1
2019-01-09T06:18:11.792Z,3.0
2019-01-09T06:19:13.186Z,3.1
2019-01-09T06:20:14.578Z,3.0
2019-01-09T06:21:16.202Z,3.1
2019-01-09T06:22:17.467Z,2.9
2019-01-09T06:23:18.857Z,3.1
2019-01-09T06:24:20.436Z,3.0
2019-01-09T06:25:21.827Z,2.9
2019-01-09T06:26:23.218Z,3.0
2019-01-09T06:27:24.761Z,3.0
2019-01-09T06:28:26.147Z,3.0
2019-01-09T06:29:27.537Z,3.0
2019-01-09T06:30:29.084Z,3.0
2019-01-09T06:31:30.476Z,3.1
2019-01-09T06:32:31.869Z,3.0
2019-01-09T06:33:33.404Z,3.0
2019-01-09T06:34:34.790Z,3.0
2019-01-09T06:35:36.284Z,3.0
2019-01-09T06:36:37.674Z,3.0
2019-01-09T06:37:39.066Z,3.0
2019-01-09T06:38:40.930Z,3.1
2019-01-09T06:39:42.323Z,3.1
2019-01-09T06:40:43.712Z,2.9
2019-01-09T06:41:45.127Z,3.0
2019-01-09T06:42:46.521Z,3.0
2019-01-09T06:44:27.563Z,3.0
2019-01-09T06:45:28.952Z,3.0
2019-01-09T06:46:30.346Z,3.0
2019-01-09T06:47:31.856Z,2.9
2019-01-09T06:48:33.247Z,3.0
2019-01-09T06:49:34.740Z,2.9
2019-01-09T06:50:36.126Z,2.8
2019-01-09T06:51:37.619Z,2.9
2019-01-09T06:52:39.007Z,2.8
2019-01-09T06:53:40.507Z,2.8
2019-01-09T06:54:41.898Z,2.8
2019-01-09T06:55:43.382Z,2.8
2019-01-09T06:56:44.774Z,2.7
2019-01-09T06:57:46.170Z,2.8
2019-01-09T06:58:47.704Z,2.8
2019-01-09T06:59:49.092Z,2.7
2019-01-09T07:00:50.484Z,2.7
2019-01-09T07:01:52.023Z,2.8
2019-01-09T07:02:53.424Z,2.8
2019-01-09T07:03:54.816Z,2.7
2019-01-09T07:04:56.348Z,2.8
2019-01-09T07:05:57.740Z,2.7
2019-01-09T07:06:59.144Z,2.8
2019-01-09T07:08:01.056Z,2.7
2019-01-09T07:09:02.447Z,2.8
2019-01-09T07:10:03.838Z,2.8
2019-01-09T07:11:05.787Z,2.8
2019-01-09T07:12:07.174Z,2.7
2019-01-09T07:13:08.569Z,2.8
2019-01-09T07:14:10.135Z,2.7
2019-01-09T07:15:13.654Z,2.8
2019-01-09T07:16:13.094Z,2.8
2019-01-09T07:17:14.487Z,2.7
2019-01-09T07:18:15.884Z,2.8
2019-01-09T07:19:17.332Z,2.7
2019-01-09T07:20:18.725Z,2.8
2019-01-09T07:21:20.116Z,2.8
2019-01-09T07:22:21.655Z,2.9
2019-01-09T07:23:23.050Z,2.9
2019-01-09T07:24:24.445Z,3.0
2019-01-09T07:25:26.009Z,3.0
2019-01-09T07:26:27.410Z,3.0
2019-01-09T07:27:28.799Z,3.0
2019-01-09T07:28:30.331Z,3.0
2019-01-09T07:29:31.723Z,3.0
2019-01-09T07:30:33.118Z,2.9
2019-01-09T07:31:34.654Z,2.9
2019-01-09T07:32:36.046Z,2.9
2019-01-09T07:33:37.444Z,2.9
2019-01-09T07:34:38.997Z,2.9
2019-01-09T07:35:40.382Z,2.9
2019-01-09T07:36:41.853Z,2.9
2019-01-09T07:37:45.317Z,2.9
2019-01-09T07:38:45.149Z,2.8
2019-01-09T07:39:46.538Z,2.8
2019-01-09T07:40:48.023Z,2.8
2019-01-09T07:41:49.418Z,2.8
2019-01-09T07:42:50.807Z,2.7
2019-01-09T07:43:52.349Z,2.8
2019-01-09T07:44:53.736Z,2.8
2019-01-09T07:45:55.129Z,2.8
2019-01-09T07:46:56.636Z,2.8
2019-01-09T07:47:58.030Z,2.8
2019-01-09T07:48:59.547Z,2.8
2019-01-09T07:50:00.935Z,2.8
2019-01-09T07:51:02.428Z,2.8
2019-01-09T07:52:03.821Z,2.7
2019-01-09T07:53:05.215Z,2.8
2019-01-09T07:54:06.752Z,2.8
2019-01-09T07:55:08.147Z,2.8
2019-01-09T07:56:09.545Z,2.8
2019-01-09T07:57:11.072Z,2.8
2019-01-09T07:58:12.464Z,2.8
2019-01-09T07:59:13.860Z,2.8
2019-01-09T08:00:15.394Z,2.8
2019-01-09T08:01:16.791Z,2.8
2019-01-09T08:02:18.185Z,2.8
2019-01-09T08:03:19.717Z,2.8
2019-01-09T08:04:21.109Z,2.8
2019-01-09T08:05:22.511Z,2.9
2019-01-09T08:06:24.036Z,2.8
2019-01-09T08:07:25.430Z,2.8
2019-01-09T08:08:26.828Z,2.8
2019-01-09T08:09:28.357Z,2.8
2019-01-09T08:10:29.759Z,2.8
2019-01-09T08:11:31.151Z,2.7
2019-01-09T08:12:32.677Z,2.8
2019-01-09T08:13:34.072Z,2.9
2019-01-09T08:14:35.464Z,2.8
2019-01-09T08:15:36.973Z,2.8
2019-01-09T08:16:38.371Z,2.9
2019-01-09T08:17:39.760Z,2.9
2019-01-09T08:18:41.327Z,2.9
2019-01-09T08:19:42.730Z,2.9
2019-01-09T08:20:44.114Z,2.8
2019-01-09T08:21:45.643Z,2.9
2019-01-09T08:22:47.038Z,2.9
2019-01-09T08:23:48.434Z,2.9
2019-01-09T08:24:49.964Z,2.9
2019-01-09T08:25:51.355Z,3.0
2019-01-09T08:26:52.850Z,3.0
2019-01-09T08:27:54.239Z,3.0
2019-01-09T08:28:55.727Z,3.0
2019-01-09T08:29:57.123Z,3.0
2019-01-09T08:30:58.608Z,2.9
2019-01-09T08:32:00.004Z,3.0
2019-01-09T08:33:01.489Z,3.0
2019-01-09T08:34:02.892Z,3.0
2019-01-09T08:35:04.280Z,3.0
2019-01-09T08:36:05.811Z,3.1
2019-01-09T08:37:07.206Z,3.0
2019-01-09T08:38:08.603Z,3.0
2019-01-09T08:39:10.103Z,3.0
2019-01-09T08:40:11.499Z,3.1
2019-01-09T08:41:12.962Z,3.1
2019-01-09T08:42:14.426Z,3.0
2019-01-09T08:43:15.822Z,3.1
2019-01-09T08:44:17.213Z,3.2
2019-01-09T08:45:18.772Z,3.3
2019-01-09T08:46:20.171Z,3.3
2019-01-09T08:47:21.561Z,3.5
2019-01-09T08:48:23.069Z,3.5
2019-01-09T08:49:24.461Z,3.6
2019-01-09T08:50:25.979Z,3.7
2019-01-09T08:51:27.380Z,3.7
2019-01-09T08:52:28.830Z,3.8
2019-01-09T08:53:30.225Z,3.9
2019-01-09T08:54:31.722Z,3.9
2019-01-09T08:55:33.200Z,3.9
2019-01-09T08:56:34.619Z,4.0
2019-01-09T08:57:36.013Z,4.0
2019-01-09T08:58:37.473Z,4.0
2019-01-09T08:59:38.869Z,3.9
2019-01-09T09:00:40.397Z,4.0
2019-01-09T09:01:41.793Z,3.9
2019-01-09T09:02:43.261Z,4.0
2019-01-09T09:03:44.658Z,4.1
2019-01-09T09:04:46.141Z,4.0
2019-01-09T09:05:47.544Z,4.2
2019-01-09T09:06:49.024Z,4.3
2019-01-09T09:07:50.422Z,4.3
2019-01-09T09:08:51.903Z,4.4
2019-01-09T09:09:53.304Z,4.4
2019-01-09T09:10:54.785Z,4.5
2019-01-09T09:11:56.179Z,4.5
2019-01-09T09:12:57.666Z,4.5
2019-01-09T09:13:59.070Z,4.5
2019-01-09T09:15:00.458Z,4.6
2019-01-09T09:16:01.885Z,4.5
2019-01-09T09:17:03.285Z,4.6
2019-01-09T09:18:04.673Z,4.6
2019-01-09T09:19:06.310Z,4.7
2019-01-09T09:20:07.702Z,4.7
2019-01-09T09:21:09.097Z,4.7
2019-01-09T09:22:10.637Z,4.6
2019-01-09T09:23:12.024Z,4.5
2019-01-09T09:24:13.425Z,4.6
2019-01-09T09:25:14.953Z,4.6
2019-01-09T09:26:16.346Z,4.7
2019-01-09T09:27:17.741Z,4.6
2019-01-09T09:28:19.281Z,4.6
2019-01-09T09:29:20.680Z,4.6
2019-01-09T09:30:22.158Z,4.7
2019-01-09T09:31:23.546Z,4.7
2019-01-09T09:32:25.036Z,4.7
2019-01-09T09:33:26.430Z,4.8
2019-01-09T09:34:27.831Z,4.8
2019-01-09T09:35:29.357Z,5.0
2019-01-09T09:36:30.753Z,4.9
2019-01-09T09:37:32.147Z,5.0
2019-01-09T09:38:33.677Z,4.9
2019-01-09T09:39:35.078Z,5.0
2019-01-09T09:40:36.559Z,5.1
2019-01-09T09:41:37.953Z,5.2
2019-01-09T09:42:39.440Z,5.1
2019-01-09T09:43:40.837Z,5.1
2019-01-09T09:44:42.323Z,5.1
2019-01-09T09:45:43.716Z,5.2
2019-01-09T09:46:45.200Z,5.2
2019-01-09T09:47:46.598Z,5.2
2019-01-09T09:48:48.080Z,5.2
2019-01-09T09:49:49.424Z,5.2
2019-01-09T09:50:50.821Z,5.2
2019-01-09T09:51:52.586Z,5.3
2019-01-09T09:52:54.129Z,5.3
2019-01-09T09:53:55.528Z,5.4
2019-01-09T09:54:57.140Z,5.4
2019-01-09T09:55:58.542Z,5.4
2019-01-09T09:56:59.932Z,5.4
2019-01-09T09:58:05.554Z,5.5
2019-01-09T09:59:02.820Z,5.3
2019-01-09T10:00:04.214Z,5.3
2019-01-09T10:01:05.778Z,5.4
2019-01-09T10:02:07.173Z,5.4
2019-01-09T10:03:08.660Z,5.5
2019-01-09T10:04:10.058Z,5.6
2019-01-09T10:05:12.560Z,5.5
2019-01-09T10:06:13.958Z,5.6
2019-01-09T10:07:15.442Z,5.6
2019-01-09T10:08:16.847Z,5.7
2019-01-09T10:09:18.324Z,5.8
2019-01-09T10:10:19.805Z,5.9
2019-01-09T10:11:21.413Z,6.0
2019-01-09T10:12:22.809Z,6.1
2019-01-09T10:13:24.289Z,6.0
2019-01-09T10:14:25.696Z,6.1
2019-01-09T10:15:27.470Z,6.1
2019-01-09T10:16:29.405Z,6.1
2019-01-09T10:17:30.841Z,6.0
2019-01-09T10:18:32.244Z,6.1
2019-01-09T10:19:33.753Z,6.1
2019-01-09T10:20:35.148Z,6.1
2019-01-09T10:21:36.633Z,6.1
2019-01-09T10:22:38.029Z,6.1
2019-01-09T10:23:39.519Z,6.1
2019-01-09T10:24:40.943Z,6.1
2019-01-09T10:25:42.341Z,6.2
2019-01-09T10:26:43.840Z,6.1
2019-01-09T10:27:45.235Z,6.1
2019-01-09T10:28:46.626Z,6.0
2019-01-09T10:29:48.160Z,5.8
2019-01-09T10:30:49.554Z,5.8
2019-01-09T10:31:50.953Z,5.7
2019-01-09T10:32:52.483Z,5.6
2019-01-09T10:33:53.881Z,5.5
2019-01-09T10:34:55.725Z,5.5
2019-01-09T10:35:57.216Z,5.5
2019-01-09T10:36:58.704Z,5.5
2019-01-09T10:37:59.970Z,5.5
2019-01-09T10:39:01.537Z,5.6
2019-01-09T10:40:02.930Z,5.6
2019-01-09T10:41:04.331Z,5.6
2019-01-09T10:42:05.853Z,5.7
2019-01-09T10:43:07.264Z,5.7
2019-01-09T10:44:08.742Z,5.6
2019-01-09T10:45:10.172Z,5.5
2019-01-09T10:46:11.567Z,5.5
2019-01-09T10:47:12.960Z,5.4
2019-01-09T10:48:14.496Z,5.3
2019-01-09T10:49:15.889Z,5.3
2019-01-09T10:50:17.285Z,5.3
2019-01-09T10:51:18.818Z,5.3
2019-01-09T10:52:20.177Z,5.2
2019-01-09T10:53:21.572Z,5.2
2019-01-09T10:54:23.140Z,5.2
2019-01-09T10:55:24.532Z,5.2
2019-01-09T10:56:26.024Z,5.2
2019-01-09T10:57:27.411Z,5.1
2019-01-09T10:58:28.903Z,5.1
2019-01-09T10:59:30.295Z,5.1
2019-01-09T11:00:31.779Z,5.1
2019-01-09T11:01:33.198Z,5.2
2019-01-09T11:02:34.660Z,5.0
2019-01-09T11:03:36.053Z,5.1
2019-01-09T11:04:37.453Z,5.0
2019-01-09T11:05:38.982Z,4.9
2019-01-09T11:06:40.384Z,4.9
2019-01-09T11:07:41.776Z,5.0
2019-01-09T11:08:47.020Z,4.9
2019-01-09T11:09:44.674Z,4.9
2019-01-09T11:10:46.070Z,4.9
2019-01-09T11:11:47.626Z,5.0
2019-01-09T11:12:49.020Z,4.9
2019-01-09T11:13:50.509Z,4.9
2019-01-09T11:14:51.907Z,4.9
2019-01-09T11:15:53.365Z,4.9
2019-01-09T11:16:54.828Z,4.8
2019-01-09T11:17:56.220Z,4.8
2019-01-09T11:18:57.613Z,4.8
2019-01-09T11:19:59.150Z,4.8
2019-01-09T11:21:00.550Z,4.8
2019-01-09T11:22:01.952Z,5.0
2019-01-09T11:23:03.531Z,5.1
2019-01-09T11:24:05.323Z,5.3
2019-01-09T11:25:06.728Z,5.3
2019-01-09T11:26:08.202Z,5.5
2019-01-09T11:27:09.598Z,5.5
2019-01-09T11:28:11.461Z,5.5
2019-01-09T11:29:13.274Z,5.6
2019-01-09T11:30:14.782Z,5.5
2019-01-09T11:31:16.180Z,5.4
2019-01-09T11:32:17.578Z,5.6
2019-01-09T11:33:19.105Z,5.7
2019-01-09T11:34:20.503Z,5.7
2019-01-09T11:35:21.901Z,5.8
2019-01-09T11:36:23.426Z,5.8
2019-01-09T11:37:24.821Z,5.8
2019-01-09T11:38:26.307Z,5.8
2019-01-09T11:39:27.701Z,5.7
2019-01-09T11:40:29.185Z,5.9
2019-01-09T11:41:30.585Z,5.9
2019-01-09T11:42:32.069Z,5.8
2019-01-09T11:43:33.525Z,5.9
2019-01-09T11:44:35.153Z,5.9
2019-01-09T11:45:36.551Z,5.9
2019-01-09T11:46:37.968Z,6.0
2019-01-09T11:47:39.474Z,6.1
2019-01-09T11:48:40.875Z,6.0
2019-01-09T11:49:42.272Z,6.0
2019-01-09T11:50:43.797Z,6.0
2019-01-09T11:51:45.211Z,6.0
2019-01-09T11:52:46.612Z,6.1
2019-01-09T11:53:48.114Z,6.1
2019-01-09T11:54:49.514Z,6.1
2019-01-09T11:55:50.905Z,6.1
2019-01-09T11:56:52.439Z,6.0
2019-01-09T11:57:53.836Z,6.1
2019-01-09T11:58:55.234Z,6.0
2019-01-09T11:59:56.756Z,6.1
2019-01-09T12:00:58.154Z,6.1
2019-01-09T12:01:59.553Z,6.1
2019-01-09T12:03:01.458Z,6.1
2019-01-09T12:04:02.855Z,6.1
2019-01-09T12:05:04.255Z,6.0
2019-01-09T12:06:05.814Z,6.1
2019-01-09T12:07:07.208Z,6.1
2019-01-09T12:08:08.695Z,6.0
2019-01-09T12:09:10.090Z,6.1
2019-01-09T12:10:11.578Z,6.1
2019-01-09T12:11:12.974Z,6.1
2019-01-09T12:12:14.601Z,6.1
2019-01-09T12:13:16.007Z,6.2
2019-01-09T12:14:17.543Z,6.1
2019-01-09T12:15:18.937Z,6.2
2019-01-09T12:16:20.425Z,6.2
2019-01-09T12:17:21.822Z,6.2
2019-01-09T12:18:23.304Z,6.2
2019-01-09T12:19:24.703Z,6.2
2019-01-09T12:20:26.183Z,6.1
2019-01-09T12:21:27.583Z,6.2
2019-01-09T12:22:28.978Z,6.3
2019-01-09T12:23:30.510Z,6.3
2019-01-09T12:24:31.911Z,6.2
2019-01-09T12:25:33.309Z,6.2
2019-01-09T12:26:34.842Z,6.1
2019-01-09T12:27:36.239Z,6.0
2019-01-09T12:28:37.710Z,6.1
2019-01-09T12:29:39.100Z,6.0
2019-01-09T12:30:40.588Z,6.1
2019-01-09T12:31:41.991Z,6.1
2019-01-09T12:32:43.467Z,6.0
2019-01-09T12:33:44.935Z,5.9
2019-01-09T12:34:46.347Z,5.9
2019-01-09T12:35:47.775Z,5.9
2019-01-09T12:36:49.141Z,5.9
2019-01-09T12:37:50.671Z,5.8
2019-01-09T12:38:52.067Z,5.9
2019-01-09T12:39:55.141Z,5.8
2019-01-09T12:40:54.822Z,5.8
2019-01-09T12:41:56.221Z,5.8
2019-01-09T12:42:57.666Z,5.7
2019-01-09T12:43:59.063Z,5.6
2019-01-09T12:45:00.460Z,5.6
2019-01-09T12:46:01.856Z,5.5
2019-01-09T12:47:03.252Z,5.5
2019-01-09T12:48:04.869Z,5.5
2019-01-09T12:49:06.268Z,5.4
2019-01-09T12:50:07.751Z,5.5
2019-01-09T12:51:09.148Z,5.5
2019-01-09T12:52:10.546Z,5.5
2019-01-09T12:53:12.073Z,5.4
2019-01-09T12:54:13.471Z,5.4
2019-01-09T12:55:14.868Z,5.4
2019-01-09T12:56:16.393Z,5.4
2019-01-09T12:57:17.791Z,5.5
2019-01-09T12:58:19.273Z,5.6
2019-01-09T12:59:21.783Z,5.6
2019-01-09T13:00:22.157Z,5.6
2019-01-09T13:01:23.555Z,5.6
2019-01-09T13:02:25.034Z,5.6
2019-01-09T13:03:26.446Z,5.6
2019-01-09T13:04:27.916Z,5.7
2019-01-09T13:05:29.312Z,5.7
2019-01-09T13:06:30.800Z,5.8
2019-01-09T13:07:32.581Z,5.8
2019-01-09T13:08:34.087Z,5.8
2019-01-09T13:09:35.486Z,5.8
2019-01-09T13:10:36.968Z,5.7
2019-01-09T13:11:38.375Z,5.7
2019-01-09T13:12:39.769Z,5.5
2019-01-09T13:13:41.289Z,5.6
2019-01-09T13:14:42.690Z,5.5
2019-01-09T13:15:44.087Z,5.5
2019-01-09T13:16:47.905Z,5.3
2019-01-09T13:17:47.042Z,5.3
2019-01-09T13:18:48.444Z,5.3
2019-01-09T13:19:49.927Z,5.2
2019-01-09T13:20:51.320Z,5.2
2019-01-09T13:21:52.716Z,5.0
2019-01-09T13:22:54.253Z,5.0
2019-01-09T13:23:55.649Z,5.0
2019-01-09T13:24:59.038Z,5.0
2019-01-09T13:25:58.497Z,5.1
2019-01-09T13:27:00.118Z,5.0
2019-01-09T13:28:01.514Z,5.1
2019-01-09T13:29:03.204Z,5.1
2019-01-09T13:30:04.601Z,5.2
2019-01-09T13:31:06.290Z,5.2
2019-01-09T13:32:07.685Z,5.3
2019-01-09T13:33:09.086Z,5.4
2019-01-09T13:34:10.502Z,5.5
2019-01-09T13:35:11.899Z,5.5
2019-01-09T13:36:13.296Z,5.7
2019-01-09T13:37:14.826Z,5.6
2019-01-09T13:38:16.184Z,5.6
2019-01-09T13:39:18.083Z,5.6
2019-01-09T13:40:19.480Z,5.5
2019-01-09T13:41:20.995Z,5.6
2019-01-09T13:42:22.393Z,5.5
2019-01-09T13:43:23.875Z,5.5
2019-01-09T13:44:25.274Z,5.6
2019-01-09T13:45:26.760Z,5.6
2019-01-09T13:46:28.156Z,5.7
2019-01-09T13:47:29.564Z,5.6
2019-01-09T13:48:31.077Z,5.6
2019-01-09T13:49:32.477Z,5.5
2019-01-09T13:50:33.874Z,5.6
2019-01-09T13:51:35.408Z,5.7
2019-01-09T13:52:36.799Z,5.8
2019-01-09T13:53:38.196Z,5.7
2019-01-09T13:54:39.725Z,5.8
2019-01-09T13:55:41.117Z,5.8
2019-01-09T13:56:42.529Z,5.7
2019-01-09T13:57:44.049Z,5.7
2019-01-09T13:58:45.454Z,5.8
2019-01-09T13:59:46.929Z,5.7
2019-01-09T14:00:48.322Z,5.7
2019-01-09T14:01:50.197Z,5.6
2019-01-09T14:02:51.589Z,5.5
2019-01-09T14:03:52.989Z,5.5
2019-01-09T14:04:54.556Z,5.5
2019-01-09T14:05:55.911Z,5.6
2019-01-09T14:06:57.308Z,5.5